Time;durP1;ratioP1;P1;durP2;ratioP2;P2;SDS_P1;SDS_P2;PMS_P1;PMS_P2;Temp;Humidity;BMP_temperature;BMP_pressure;BME280_temperature;BME280_humidity;BME280_pressure;Samples;Min_cycle;Max_cycle;Signal;HPM_P1;HPM_P2
2021/10/18 00:01:13;;;;;;;51.03;31.27;;;;;;;8.09;100.00;102073.00;5022706;28;20026;-63
2021/10/18 00:03:39;;;;;;;50.15;31.75;;;;;;;8.02;100.00;102072.78;5024600;28;20472;-63
2021/10/18 00:06:04;;;;;;;50.45;31.77;;;;;;;7.98;100.00;102076.16;5021694;28;20030;-67
2021/10/18 00:08:30;;;;;;;49.28;31.65;;;;;;;7.96;100.00;102084.84;5013376;28;20026;-69
2021/10/18 00:10:55;;;;;;;51.92;31.73;;;;;;;7.89;100.00;102075.81;5012963;28;20029;-67
2021/10/18 00:13:21;;;;;;;50.40;31.95;;;;;;;7.92;100.00;102075.94;5013325;28;20045;-67
2021/10/18 00:15:47;;;;;;;49.65;31.23;;;;;;;7.93;100.00;102069.81;5013264;28;20021;-67
2021/10/18 00:18:12;;;;;;;49.78;31.58;;;;;;;7.97;100.00;102068.22;5021948;28;20032;-70
2021/10/18 00:20:37;;;;;;;48.47;31.80;;;;;;;7.93;100.00;102063.66;5024484;28;20073;-68
2021/10/18 00:23:02;;;;;;;50.47;31.83;;;;;;;7.91;99.64;102060.09;5020881;28;20034;-66
2021/10/18 00:25:28;;;;;;;50.92;32.05;;;;;;;7.90;99.45;102069.72;5012845;28;20026;-67
2021/10/18 00:27:53;;;;;;;52.45;33.08;;;;;;;7.88;100.00;102068.78;5023409;28;20057;-67
2021/10/18 00:30:19;;;;;;;52.15;33.92;;;;;;;7.84;100.00;102072.16;5023009;28;20548;-69
2021/10/18 00:32:44;;;;;;;51.88;34.03;;;;;;;7.84;99.88;102072.16;5022249;28;20030;-69
2021/10/18 00:35:10;;;;;;;55.13;33.85;;;;;;;7.85;100.00;102071.31;5023910;28;20021;-68
2021/10/18 00:37:35;;;;;;;51.10;34.20;;;;;;;7.93;100.00;102072.44;5013033;28;20050;-68
2021/10/18 00:40:00;;;;;;;51.00;32.60;;;;;;;7.94;100.00;102073.38;5024318;28;20419;-66
2021/10/18 00:42:26;;;;;;;51.22;33.45;;;;;;;8.01;99.73;102076.25;5021750;28;20404;-68
2021/10/18 00:44:51;;;;;;;49.08;32.75;;;;;;;8.01;99.25;102076.25;5023149;28;20041;-69
2021/10/18 00:47:18;;;;;;;52.00;33.78;;;;;;;8.07;99.13;102079.94;5022900;28;20425;-68
2021/10/18 00:49:44;;;;;;;53.90;34.75;;;;;;;8.10;98.55;102085.34;5022405;28;20036;-70
2021/10/18 00:52:12;;;;;;;55.05;34.22;;;;;;;8.12;98.05;102091.53;5024005;28;20104;-71
2021/10/18 00:54:37;;;;;;;52.22;33.92;;;;;;;8.13;98.62;102085.44;5020839;28;20393;-68
2021/10/18 00:57:05;;;;;;;51.47;34.03;;;;;;;8.17;97.62;102093.47;5024316;28;20560;-67
2021/10/18 00:59:33;;;;;;;52.08;33.92;;;;;;;8.17;97.97;102098.75;5020933;28;20547;-68
2021/10/18 01:01:58;;;;;;;54.70;34.72;;;;;;;8.17;99.95;102100.50;5023787;28;20057;-66
2021/10/18 01:04:24;;;;;;;53.67;35.15;;;;;;;8.19;100.00;102101.44;5021969;28;20464;-68
2021/10/18 01:06:51;;;;;;;51.13;34.13;;;;;;;8.18;100.00;102099.63;5012489;28;20030;-67
2021/10/18 01:09:16;;;;;;;54.78;35.10;;;;;;;8.18;98.02;102102.28;5012564;28;20028;-67
2021/10/18 01:11:41;;;;;;;54.33;35.30;;;;;;;8.18;98.81;102104.91;5021459;28;20030;-68
2021/10/18 01:14:07;;;;;;;52.13;35.03;;;;;;;8.15;99.58;102108.31;5024097;28;20029;-67
2021/10/18 01:16:33;;;;;;;51.42;33.50;;;;;;;8.18;99.88;102115.44;5020947;28;20389;-69
2021/10/18 01:19:12;;;;;;;49.70;33.78;;;;;;;8.20;100.00;102113.78;5012673;28;20022;-69
2021/10/18 01:21:39;;;;;;;52.13;33.65;;;;;;;8.12;100.00;102107.34;5020781;28;20548;-66
2021/10/18 01:24:04;;;;;;;49.95;33.30;;;;;;;8.13;100.00;102106.50;5023912;28;20029;-66
2021/10/18 01:26:29;;;;;;;50.78;33.08;;;;;;;8.11;100.00;102102.91;5020686;28;20018;-63
2021/10/18 01:28:55;;;;;;;52.28;33.30;;;;;;;8.08;100.00;102094.91;5012504;28;20026;-63
2021/10/18 01:31:20;;;;;;;50.38;32.75;;;;;;;8.01;100.00;102085.91;5012337;28;20030;-63
2021/10/18 01:33:46;;;;;;;52.75;34.50;;;;;;;8.01;100.00;102086.78;5021684;28;20029;-62
2021/10/18 01:36:11;;;;;;;53.78;34.67;;;;;;;7.98;100.00;102097.22;5026943;28;20392;-63
2021/10/18 01:38:37;;;;;;;50.78;33.70;;;;;;;7.97;100.00;102097.16;5015987;28;20072;-63
2021/10/18 01:41:02;;;;;;;49.05;32.97;;;;;;;8.00;100.00;102102.53;5020239;28;20025;-63
2021/10/18 01:43:28;;;;;;;50.22;33.55;;;;;;;7.97;100.00;102099.81;5026959;28;20087;-63
2021/10/18 01:45:53;;;;;;;52.35;34.42;;;;;;;8.00;100.00;102099.91;5025472;28;20480;-63
2021/10/18 01:48:20;;;;;;;52.55;34.25;;;;;;;8.03;100.00;102097.38;5025883;28;20453;-62
2021/10/18 01:50:45;;;;;;;53.15;35.65;;;;;;;8.01;100.00;102094.69;5026172;28;20388;-63
2021/10/18 01:53:11;;;;;;;52.17;35.13;;;;;;;8.01;100.00;102096.44;5024299;28;20038;-63
2021/10/18 01:55:37;;;;;;;54.45;35.03;;;;;;;8.00;100.00;102095.53;5027231;28;20042;-63
2021/10/18 01:58:03;;;;;;;55.70;36.60;;;;;;;7.98;100.00;102101.56;5023891;28;20034;-62
2021/10/18 02:00:29;;;;;;;53.97;35.80;;;;;;;7.98;100.00;102091.97;5026889;28;20087;-63
2021/10/18 02:02:54;;;;;;;54.00;35.45;;;;;;;7.98;100.00;102089.31;5025189;28;20463;-63
2021/10/18 02:05:19;;;;;;;56.42;36.63;;;;;;;7.98;100.00;102097.22;5015505;28;20026;-63
2021/10/18 02:07:45;;;;;;;55.22;36.55;;;;;;;7.95;100.00;102086.59;5015383;28;20052;-62
2021/10/18 02:10:12;;;;;;;54.35;35.08;;;;;;;7.93;100.00;102084.72;5015743;28;20029;-63
2021/10/18 02:12:38;;;;;;;52.10;35.78;;;;;;;7.89;100.00;102081.09;5023443;28;20175;-62
2021/10/18 02:15:05;;;;;;;53.55;35.47;;;;;;;7.83;100.00;102080.88;5027130;28;20029;-63
2021/10/18 02:17:30;;;;;;;53.88;34.80;;;;;;;7.74;100.00;102076.19;5023894;28;20022;-63
2021/10/18 02:19:56;;;;;;;52.95;35.85;;;;;;;7.64;100.00;102068.78;5025832;28;20037;-67
2021/10/18 02:22:21;;;;;;;53.70;36.05;;;;;;;7.58;100.00;102066.84;5024909;28;20534;-65
2021/10/18 02:24:46;;;;;;;55.50;36.10;;;;;;;7.48;100.00;102073.53;5015269;28;20168;-63
2021/10/18 02:27:12;;;;;;;55.70;36.33;;;;;;;7.36;100.00;102072.16;5023693;28;20029;-64
2021/10/18 02:29:37;;;;;;;57.00;36.75;;;;;;;7.30;100.00;102070.22;5026852;28;20061;-67
2021/10/18 02:32:03;;;;;;;56.08;37.85;;;;;;;7.20;100.00;102066.31;5023298;28;20491;-65
2021/10/18 02:34:28;;;;;;;58.08;38.13;;;;;;;7.12;100.00;102067.75;5015117;28;20447;-64
2021/10/18 02:36:53;;;;;;;59.13;38.78;;;;;;;7.07;100.00;102059.69;5015084;28;20030;-63
2021/10/18 02:39:19;;;;;;;56.85;37.22;;;;;;;6.97;100.00;102063.72;5023663;28;20034;-63
2021/10/18 02:41:44;;;;;;;57.17;38.65;;;;;;;6.92;100.00;102065.28;5025593;28;20029;-67
2021/10/18 02:44:10;;;;;;;55.92;37.88;;;;;;;6.88;100.00;102059.84;5014763;28;20048;-66
2021/10/18 02:46:35;;;;;;;59.70;40.22;;;;;;;6.78;100.00;102054.22;5014750;28;20109;-67
2021/10/18 02:49:00;;;;;;;59.33;39.65;;;;;;;6.73;100.00;102061.03;5026078;28;20066;-66
2021/10/18 02:51:26;;;;;;;57.50;38.80;;;;;;;6.62;100.00;102064.97;5023896;28;20108;-67
2021/10/18 02:53:51;;;;;;;61.90;40.33;;;;;;;6.70;100.00;102062.63;5024792;28;20104;-65
2021/10/18 02:56:16;;;;;;;60.58;39.20;;;;;;;6.68;100.00;102059.06;5023807;28;20407;-62
2021/10/18 02:58:41;;;;;;;60.00;38.72;;;;;;;6.71;100.00;102054.81;5023193;28;20030;-62
2021/10/18 03:01:07;;;;;;;60.22;41.10;;;;;;;6.66;100.00;102068.63;5026058;28;20104;-63
2021/10/18 03:03:32;;;;;;;62.03;42.10;;;;;;;6.69;100.00;102061.75;5022776;28;20030;-62
2021/10/18 03:05:57;;;;;;;59.05;41.45;;;;;;;6.64;100.00;102052.81;5025095;28;20120;-62
2021/10/18 03:08:23;;;;;;;61.15;42.10;;;;;;;6.62;100.00;102044.81;5023960;28;20064;-62
2021/10/18 03:10:48;;;;;;;62.95;41.00;;;;;;;6.59;100.00;102038.56;5024194;28;20044;-62
2021/10/18 03:13:16;;;;;;;61.22;41.10;;;;;;;6.53;100.00;102033.97;5024965;28;20030;-63
2021/10/18 03:15:41;;;;;;;60.45;40.65;;;;;;;6.52;100.00;102039.16;5022574;28;20520;-62
2021/10/18 03:18:07;;;;;;;57.95;38.90;;;;;;;6.52;100.00;102036.53;5026058;28;20025;-63
2021/10/18 03:20:32;;;;;;;58.30;39.63;;;;;;;6.48;100.00;102045.13;5022401;28;20091;-62
2021/10/18 03:22:57;;;;;;;60.67;39.95;;;;;;;6.43;100.00;102044.94;5024711;28;20037;-62
2021/10/18 03:25:23;;;;;;;56.72;38.58;;;;;;;6.36;100.00;102042.88;5024140;28;20029;-62
2021/10/18 03:27:48;;;;;;;61.88;41.47;;;;;;;6.40;100.00;102042.19;5023817;28;20033;-62
2021/10/18 03:30:14;;;;;;;57.70;39.10;;;;;;;6.39;100.00;102037.75;5024699;28;20024;-62
2021/10/18 03:32:39;;;;;;;63.88;41.20;;;;;;;6.34;100.00;102044.56;5022267;28;20064;-62
2021/10/18 03:35:06;;;;;;;64.55;41.20;;;;;;;6.32;100.00;102040.97;5025498;28;20033;-62
2021/10/18 03:37:32;;;;;;;62.15;41.78;;;;;;;6.28;100.00;102042.59;5022486;28;20030;-62
2021/10/18 03:39:58;;;;;;;62.72;41.58;;;;;;;6.22;100.00;102043.22;5013994;28;20022;-62
2021/10/18 03:42:24;;;;;;;67.93;44.05;;;;;;;6.17;100.00;102047.38;5013625;28;20045;-63
2021/10/18 03:44:49;;;;;;;64.90;42.50;;;;;;;6.10;100.00;102048.88;5023313;28;20473;-63
2021/10/18 03:47:14;;;;;;;73.82;44.40;;;;;;;6.10;100.00;102056.75;5024151;28;20075;-62
2021/10/18 03:49:40;;;;;;;70.53;44.83;;;;;;;6.09;100.00;102060.19;5013565;28;20033;-63
2021/10/18 03:52:05;;;;;;;66.38;43.00;;;;;;;6.14;100.00;102057.75;5013818;28;20033;-63
2021/10/18 03:54:31;;;;;;;72.25;45.97;;;;;;;6.15;100.00;102059.56;5024347;28;20466;-62
2021/10/18 03:56:56;;;;;;;72.50;46.40;;;;;;;6.09;100.00;102065.44;5022071;28;20022;-62
2021/10/18 03:59:21;;;;;;;75.05;44.85;;;;;;;6.11;100.00;102073.38;5013536;28;20473;-63
2021/10/18 04:01:48;;;;;;;75.20;46.75;;;;;;;6.11;100.00;102070.75;5013201;28;20057;-63
2021/10/18 04:04:13;;;;;;;83.28;48.58;;;;;;;6.10;100.00;102069.88;5022254;28;20036;-63
2021/10/18 04:06:39;;;;;;;75.57;45.30;;;;;;;6.11;100.00;102070.75;5025079;28;20443;-63
2021/10/18 04:09:04;;;;;;;69.97;43.35;;;;;;;5.94;100.00;102064.75;5017286;28;20022;-63
2021/10/18 04:11:29;;;;;;;79.35;47.22;;;;;;;5.99;100.00;102072.88;5013362;28;20021;-63
2021/10/18 04:13:55;;;;;;;65.97;42.88;;;;;;;5.96;100.00;102072.72;5013539;28;20022;-63
2021/10/18 04:16:20;;;;;;;70.95;43.30;;;;;;;5.91;100.00;102073.41;5013379;28;20386;-63
2021/10/18 04:18:45;;;;;;;77.63;45.08;;;;;;;5.98;100.00;102078.97;5013093;28;20025;-63
2021/10/18 04:21:11;;;;;;;72.53;43.58;;;;;;;5.85;100.00;102078.38;5013336;28;20092;-63
2021/10/18 04:23:36;;;;;;;67.88;42.70;;;;;;;5.83;100.00;102072.19;5021168;28;20026;-62
2021/10/18 04:26:01;;;;;;;68.88;42.00;;;;;;;5.84;100.00;102071.34;5013441;28;20030;-63
2021/10/18 04:28:27;;;;;;;66.60;42.15;;;;;;;5.85;100.00;102073.13;5023499;28;20084;-62
2021/10/18 04:30:52;;;;;;;68.03;43.47;;;;;;;5.76;100.00;102065.75;5022722;28;20041;-62
2021/10/18 04:33:19;;;;;;;68.82;43.45;;;;;;;5.79;100.00;102066.72;5022180;28;20115;-67
2021/10/18 04:35:45;;;;;;;71.38;43.40;;;;;;;5.75;100.00;102061.34;5023611;28;20026;-66
2021/10/18 04:38:10;;;;;;;71.68;43.47;;;;;;;5.75;100.00;102069.22;5021453;28;20076;-66
2021/10/18 04:40:36;;;;;;;70.85;43.42;;;;;;;5.73;100.00;102072.59;5024611;28;20026;-67
2021/10/18 04:43:01;;;;;;;69.28;42.05;;;;;;;5.68;100.00;102066.25;5021799;28;20061;-63
2021/10/18 04:45:26;;;;;;;67.00;40.60;;;;;;;5.55;100.00;102067.47;5012730;28;20113;-65
2021/10/18 04:47:52;;;;;;;63.45;40.33;;;;;;;5.53;100.00;102072.66;5022805;28;20060;-66
2021/10/18 04:50:20;;;;;;;70.32;42.03;;;;;;;5.49;100.00;102078.56;5023030;28;20100;-66
2021/10/18 04:52:45;;;;;;;67.53;42.85;;;;;;;5.48;100.00;102076.78;5021676;28;20496;-64
2021/10/18 04:55:11;;;;;;;71.00;44.20;;;;;;;5.48;100.00;102082.00;5024254;28;20049;-68
2021/10/18 04:57:51;;;;;;;74.10;43.58;;;;;;;5.43;100.00;102083.53;5020926;28;20037;-63
2021/10/18 05:00:16;;;;;;;71.55;42.95;;;;;;;5.42;100.00;102084.38;5019257;28;20022;-67
2021/10/18 05:02:42;;;;;;;65.32;41.47;;;;;;;5.35;100.00;102090.16;5023945;28;20033;-63
2021/10/18 05:05:08;;;;;;;68.72;41.55;;;;;;;5.32;100.00;102092.66;5020649;28;20029;-63
2021/10/18 05:07:33;;;;;;;65.53;40.92;;;;;;;5.29;100.00;102090.78;5012482;28;20033;-64
2021/10/18 05:09:58;;;;;;;79.82;44.97;;;;;;;5.30;100.00;102086.41;5014232;28;20030;-62
2021/10/18 05:12:23;;;;;;;76.05;44.55;;;;;;;5.31;100.00;102085.59;5016416;28;20030;-63
2021/10/18 05:14:49;;;;;;;74.03;44.38;;;;;;;5.28;100.00;102077.59;5016644;28;20058;-62
2021/10/18 05:17:14;;;;;;;73.93;42.88;;;;;;;5.23;100.00;102078.28;5025287;28;20480;-64
2021/10/18 05:19:39;;;;;;;68.85;42.75;;;;;;;5.18;100.00;102076.28;5027897;28;20030;-66
2021/10/18 05:22:05;;;;;;;75.65;46.00;;;;;;;5.28;100.00;102069.72;5020401;28;20050;-70
2021/10/18 05:24:30;;;;;;;83.55;47.78;;;;;;;5.24;100.00;102076.53;5027415;28;20065;-66
2021/10/18 05:26:55;;;;;;;85.75;49.15;;;;;;;5.27;100.00;102084.59;5025611;28;20025;-69
2021/10/18 05:29:23;;;;;;;93.35;51.65;;;;;;;5.30;100.00;102082.09;5016279;28;20026;-68
2021/10/18 05:31:48;;;;;;;91.30;51.72;;;;;;;5.31;100.00;102080.34;5016355;28;20022;-68
2021/10/18 05:34:20;;;;;;;90.43;49.30;;;;;;;5.30;100.00;102083.78;5015806;28;20381;-65
2021/10/18 05:36:45;;;;;;;92.97;51.95;;;;;;;5.33;100.00;102078.69;5022504;28;20022;-64
2021/10/18 05:39:11;;;;;;;86.35;48.42;;;;;;;5.29;100.00;102089.88;5022932;28;20052;-65
2021/10/18 05:41:37;;;;;;;88.22;49.10;;;;;;;5.24;100.00;102092.28;5024388;28;20034;-65
2021/10/18 05:44:03;;;;;;;96.10;52.80;;;;;;;5.30;100.00;102092.59;5017718;28;20048;-64
2021/10/18 05:46:28;;;;;;;88.72;49.83;;;;;;;5.31;100.00;102099.59;5023581;28;20030;-65
2021/10/18 05:48:54;;;;;;;101.97;53.47;;;;;;;5.34;100.00;102094.50;5019151;28;20053;-65
2021/10/18 05:51:19;;;;;;;98.13;54.08;;;;;;;5.38;100.00;102085.06;5021157;28;20057;-65
2021/10/18 05:53:45;;;;;;;100.13;53.83;;;;;;;5.40;100.00;102091.25;5022941;28;20022;-64
2021/10/18 05:56:10;;;;;;;88.90;49.42;;;;;;;5.38;100.00;102099.06;5024297;28;20054;-64
2021/10/18 05:58:36;;;;;;;90.70;51.03;;;;;;;5.34;100.00;102099.72;5019533;28;20072;-65
2021/10/18 06:01:01;;;;;;;85.65;48.30;;;;;;;5.33;100.00;102102.28;5019788;28;20037;-65
2021/10/18 06:03:27;;;;;;;81.72;47.28;;;;;;;5.32;100.00;102106.66;5022585;28;20120;-64
2021/10/18 06:05:53;;;;;;;90.80;51.42;;;;;;;5.34;100.00;102107.59;5020605;28;20022;-65
2021/10/18 06:08:19;;;;;;;97.05;52.50;;;;;;;5.38;100.00;102101.69;5019180;28;20018;-65
2021/10/18 06:10:45;;;;;;;94.28;50.75;;;;;;;5.40;100.00;102099.13;5025076;28;20417;-64
2021/10/18 06:13:11;;;;;;;99.18;52.13;;;;;;;5.43;100.00;102107.13;5023530;28;20465;-65
2021/10/18 06:15:37;;;;;;;100.45;52.30;;;;;;;5.47;100.00;102095.94;5023575;28;20091;-65
2021/10/18 06:18:16;;;;;;;91.53;50.78;;;;;;;5.50;100.00;102098.72;5024859;28;20055;-65
2021/10/18 06:20:45;;;;;;;95.68;51.10;;;;;;;5.53;100.00;102112.00;5023259;28;20091;-65
2021/10/18 06:23:13;;;;;;;84.63;49.75;;;;;;;5.55;100.00;102110.31;5008721;28;20037;-64
2021/10/18 06:25:39;;;;;;;88.82;48.90;;;;;;;5.62;100.00;102115.84;5026261;28;20018;-65
2021/10/18 06:28:05;;;;;;;88.50;47.88;;;;;;;5.65;100.00;102118.59;5022782;28;20033;-64
2021/10/18 06:30:32;;;;;;;87.25;49.20;;;;;;;5.70;100.00;102110.09;5021302;28;20026;-65
2021/10/18 06:32:57;;;;;;;84.38;48.50;;;;;;;5.72;100.00;102115.41;5020057;28;20496;-63
2021/10/18 06:35:23;;;;;;;85.18;47.72;;;;;;;5.80;100.00;102116.66;5025506;28;20118;-63
2021/10/18 06:37:49;;;;;;;87.20;48.83;;;;;;;5.87;100.00;102113.47;5020112;28;20475;-64
2021/10/18 06:40:15;;;;;;;81.07;47.33;;;;;;;5.92;100.00;102117.19;5017367;28;20024;-64
2021/10/18 06:42:41;;;;;;;85.38;47.10;;;;;;;6.00;100.00;102122.81;5023767;28;20388;-64
2021/10/18 06:45:10;;;;;;;79.97;45.92;;;;;;;6.06;100.00;102132.69;5018415;28;20124;-63
2021/10/18 06:47:36;;;;;;;83.53;46.80;;;;;;;6.14;100.00;102133.03;5020936;28;20501;-63
2021/10/18 06:50:04;;;;;;;84.15;47.40;;;;;;;6.20;100.00;102134.16;5019331;28;20080;-62
2021/10/18 06:52:38;;;;;;;75.63;45.53;;;;;;;6.28;100.00;102134.50;5023201;28;20037;-62
2021/10/18 06:55:07;;;;;;;78.63;44.95;;;;;;;6.32;100.00;102138.16;5017673;28;20092;-62
2021/10/18 06:57:32;;;;;;;77.28;45.50;;;;;;;6.40;100.00;102142.00;5018447;28;20045;-62
2021/10/18 06:59:58;;;;;;;80.28;45.38;;;;;;;6.44;100.00;102134.31;5021237;28;20029;-63
2021/10/18 07:02:25;;;;;;;75.47;44.28;;;;;;;6.50;100.00;102138.94;5021917;28;20429;-63
2021/10/18 07:04:50;;;;;;;74.07;45.38;;;;;;;6.55;100.00;102141.75;5015102;28;20504;-63
2021/10/18 07:07:15;;;;;;;74.43;42.75;;;;;;;6.58;100.00;102145.41;5018374;28;20064;-63
2021/10/18 07:09:42;;;;;;;72.30;44.08;;;;;;;6.62;100.00;102139.41;5019502;28;20029;-63
2021/10/18 07:12:09;;;;;;;73.32;43.58;;;;;;;6.69;100.00;102142.31;5019134;28;20029;-62
2021/10/18 07:14:34;;;;;;;72.15;44.00;;;;;;;6.74;100.00;102138.13;5021303;28;20037;-63
2021/10/18 07:16:59;;;;;;;71.28;42.65;;;;;;;6.78;100.00;102134.81;5023363;28;20021;-63
2021/10/18 07:19:25;;;;;;;70.03;42.85;;;;;;;6.84;100.00;102136.78;5023111;28;20042;-63
2021/10/18 07:21:50;;;;;;;69.40;41.47;;;;;;;6.90;100.00;102140.56;5019010;28;20029;-63
2021/10/18 07:24:17;;;;;;;71.75;42.53;;;;;;;6.98;100.00;102139.13;5015728;28;20088;-63
2021/10/18 07:26:43;;;;;;;68.97;41.03;;;;;;;7.05;100.00;102135.00;5018034;28;20030;-68
2021/10/18 07:29:10;;;;;;;69.80;41.63;;;;;;;7.13;100.00;102127.41;5016806;28;20516;-75
2021/10/18 07:31:35;;;;;;;67.78;41.45;;;;;;;7.21;100.00;102128.63;5016238;28;20128;-66
2021/10/18 07:34:03;;;;;;;67.22;40.28;;;;;;;7.30;100.00;102115.81;5013335;28;20105;-63
2021/10/18 07:36:29;;;;;;;67.78;41.47;;;;;;;7.38;100.00;102118.72;5012551;28;20030;-63
2021/10/18 07:39:03;;;;;;;70.43;43.72;;;;;;;7.49;100.00;102119.16;5019831;28;20029;-63
2021/10/18 07:41:28;;;;;;;64.65;39.20;;;;;;;7.64;100.00;102122.31;5018885;28;20108;-62
2021/10/18 07:43:54;;;;;;;65.40;40.13;;;;;;;7.77;100.00;102125.41;5018047;28;20120;-62
2021/10/18 07:46:19;;;;;;;62.47;38.30;;;;;;;7.88;100.00;102133.69;5016269;28;20054;-63
2021/10/18 07:48:44;;;;;;;66.15;39.55;;;;;;;7.97;100.00;102131.41;5017486;28;20082;-63
2021/10/18 07:51:10;;;;;;;63.22;38.90;;;;;;;8.08;100.00;102135.31;5022052;28;20037;-63
2021/10/18 07:53:35;;;;;;;61.38;36.50;;;;;;;8.23;100.00;102142.84;5016743;28;20040;-63
2021/10/18 07:56:00;;;;;;;58.75;36.78;;;;;;;8.35;100.00;102140.63;5021294;28;20122;-63
2021/10/18 07:58:26;;;;;;;62.45;37.58;;;;;;;8.45;100.00;102141.00;5021353;28;20117;-63
2021/10/18 08:00:51;;;;;;;61.97;36.83;;;;;;;8.57;100.00;102145.78;5013005;28;20476;-64
2021/10/18 08:03:17;;;;;;;61.88;37.63;;;;;;;8.68;98.54;102142.66;5012990;28;20026;-66
2021/10/18 08:05:42;;;;;;;61.17;36.17;;;;;;;8.77;98.09;102128.88;5013081;28;20476;-65
2021/10/18 08:08:10;;;;;;;58.22;35.90;;;;;;;8.87;97.43;102138.84;5023893;28;20025;-65
2021/10/18 08:10:36;;;;;;;60.15;35.78;;;;;;;8.93;95.17;102140.81;5022364;28;20022;-65
2021/10/18 08:13:02;;;;;;;60.25;36.15;;;;;;;9.05;95.44;102132.38;5011467;28;20437;-65
2021/10/18 08:15:30;;;;;;;58.10;34.42;;;;;;;9.16;93.34;102137.97;5022243;28;20481;-69
2021/10/18 08:17:56;;;;;;;59.95;35.22;;;;;;;9.28;91.73;102138.34;5023496;28;20026;-69
2021/10/18 08:20:22;;;;;;;60.70;36.22;;;;;;;9.35;91.91;102144.69;5018601;28;20479;-67
2021/10/18 08:22:48;;;;;;;56.05;33.28;;;;;;;9.43;88.53;102156.38;5025545;28;20108;-66
2021/10/18 08:25:14;;;;;;;58.75;35.05;;;;;;;9.48;88.04;102146.88;5017543;28;20030;-66
2021/10/18 08:27:42;;;;;;;56.53;35.55;;;;;;;9.53;86.74;102144.38;5022196;28;20033;-67
2021/10/18 08:30:08;;;;;;;55.22;33.90;;;;;;;9.56;87.46;102144.44;5021329;28;20018;-67
2021/10/18 08:32:34;;;;;;;55.78;35.22;;;;;;;9.64;87.02;102142.94;5020307;28;20026;-67
2021/10/18 08:35:00;;;;;;;57.33;34.60;;;;;;;9.75;88.92;102136.19;5019760;28;20381;-67
2021/10/18 08:38:16;;;;;;;56.97;33.65;;;;;;;9.86;85.52;102138.25;5019465;28;20465;-66
2021/10/18 08:40:11;;;;;;;54.83;31.98;;;;;;;9.92;83.43;102136.69;5022037;28;20802;-68
2021/10/18 08:42:54;;;;;;;56.35;32.35;;;;;;;9.90;84.20;102142.75;5016570;28;20112;-66
2021/10/18 08:45:20;;;;;;;54.38;32.58;;;;;;;9.96;82.97;102145.59;5018501;28;20381;-66
2021/10/18 08:47:48;;;;;;;54.25;32.30;;;;;;;10.10;84.02;102146.84;5016180;28;20026;-67
2021/10/18 08:50:13;;;;;;;55.63;32.80;;;;;;;10.19;81.72;102142.66;5011269;28;20084;-67
2021/10/18 08:52:41;;;;;;;55.30;32.58;;;;;;;10.30;81.56;102136.81;5012494;28;20382;-65
2021/10/18 08:55:07;;;;;;;50.30;30.45;;;;;;;10.37;79.30;102142.28;5022597;28;20084;-64
2021/10/18 08:57:33;;;;;;;54.47;32.42;;;;;;;10.45;79.16;102144.25;5017479;28;20034;-63
2021/10/18 08:59:58;;;;;;;52.58;30.77;;;;;;;10.61;79.20;102142.00;5016346;28;20499;-64
2021/10/18 09:02:40;;;;;;;52.20;30.92;;;;;;;10.67;79.15;102141.28;5021060;28;20034;-65
2021/10/18 09:05:09;;;;;;;52.20;31.43;;;;;;;10.84;79.40;102149.63;5016363;28;20503;-64
2021/10/18 09:07:37;;;;;;;49.30;29.67;;;;;;;10.84;77.48;102144.34;5020480;28;20033;-64
2021/10/18 09:10:11;;;;;;;54.47;32.08;;;;;;;10.78;78.15;102140.69;5018998;28;20041;-65
2021/10/18 09:12:39;;;;;;;51.58;32.03;;;;;;;10.68;78.55;102130.72;5016967;28;20030;-66
2021/10/18 09:15:24;;;;;;;51.28;30.88;;;;;;;10.72;78.90;102135.25;5019444;28;20036;-63
2021/10/18 09:18:00;;;;;;;53.40;31.27;;;;;;;10.70;78.54;102142.22;5018805;28;20033;-63
2021/10/18 09:20:32;;;;;;;51.55;30.92;;;;;;;10.62;78.89;102133.22;5019714;28;20033;-65
2021/10/18 09:23:24;;;;;;;52.22;30.83;;;;;;;10.67;77.81;102136.88;5022984;28;20118;-63
2021/10/18 09:25:50;;;;;;;51.33;31.33;;;;;;;10.86;78.77;102126.75;5020686;28;20038;-63
2021/10/18 09:28:21;;;;;;;51.08;29.80;;;;;;;11.04;76.12;102128.91;5022490;28;20105;-63
2021/10/18 09:30:47;;;;;;;54.08;30.90;;;;;;;11.24;76.27;102124.97;5021473;28;20087;-63
2021/10/18 09:33:25;;;;;;;49.92;28.95;;;;;;;11.55;75.38;102124.72;5022931;28;20052;-63
2021/10/18 09:35:52;;;;;;;48.65;29.17;;;;;;;11.74;73.13;102116.28;5012154;28;20052;-63
2021/10/18 09:38:21;;;;;;;48.78;29.48;;;;;;;11.78;73.44;102118.16;5022225;28;20018;-63
2021/10/18 09:40:48;;;;;;;51.72;30.27;;;;;;;11.72;72.93;102114.47;5022490;28;20025;-63
2021/10/18 09:43:18;;;;;;;51.05;29.63;;;;;;;11.81;75.25;102118.19;5021312;28;20489;-63
2021/10/18 10:53:14;;;;;;;38.10;20.33;;;;;;;18.71;48.51;102067.47;5013179;28;20036;-64
2021/10/18 10:55:40;;;;;;;35.45;19.77;;;;;;;18.73;49.17;102054.03;5014916;28;20041;-65
2021/10/18 10:58:49;;;;;;;36.63;20.35;;;;;;;18.68;49.75;102054.06;5012222;28;20038;-64
2021/10/18 11:01:45;;;;;;;34.92;20.00;;;;;;;18.37;52.07;102046.34;5012264;28;20117;-63
2021/10/18 11:04:29;;;;;;;39.22;20.73;;;;;;;18.23;50.25;102045.56;5013598;28;20053;-64
2021/10/18 11:06:58;;;;;;;37.88;19.67;;;;;;;18.11;49.80;102047.47;5011485;28;20172;-67
2021/10/18 11:09:51;;;;;;;37.80;19.48;;;;;;;18.35;53.26;102055.28;5012041;28;20030;-64
2021/10/18 11:12:41;;;;;;;35.78;19.98;;;;;;;18.87;50.55;102056.59;5014301;28;20025;-65
2021/10/18 11:15:15;;;;;;;35.20;19.13;;;;;;;18.79;47.22;102046.81;5015710;28;20046;-64
2021/10/18 11:17:49;;;;;;;35.60;19.33;;;;;;;18.96;49.22;102035.94;5016574;28;20109;-65
2021/10/18 11:20:17;;;;;;;35.72;18.75;;;;;;;19.71;46.51;102024.25;5017073;28;20095;-66
2021/10/18 11:22:46;;;;;;;34.20;18.60;;;;;;;20.76;43.81;102009.06;5017894;28;20373;-65
2021/10/18 11:25:17;;;;;;;34.60;18.08;;;;;;;21.86;42.85;102005.75;5016496;28;20034;-65
2021/10/18 11:27:45;;;;;;;33.05;16.70;;;;;;;21.78;41.07;102007.72;5023874;28;20017;-63
2021/10/18 11:30:14;;;;;;;33.15;17.60;;;;;;;21.57;41.92;102003.75;5018308;28;20113;-65
2021/10/18 11:32:41;;;;;;;32.38;16.88;;;;;;;21.33;41.10;101995.28;5020504;28;20025;-64
2021/10/18 11:35:16;;;;;;;33.42;17.35;;;;;;;20.75;42.15;101992.06;5021612;28;20026;-64
2021/10/18 11:37:59;;;;;;;33.47;17.42;;;;;;;20.18;44.60;101996.66;5022009;28;20037;-64
2021/10/18 11:40:31;;;;;;;32.13;17.15;;;;;;;19.76;44.87;102003.56;5022030;28;20349;-63
2021/10/18 11:43:15;;;;;;;31.55;16.38;;;;;;;19.89;45.76;102009.66;5018862;28;20388;-62
2021/10/18 11:45:44;;;;;;;34.58;16.63;;;;;;;19.90;45.11;102024.88;5017946;28;20026;-63
2021/10/18 11:48:17;;;;;;;31.70;16.42;;;;;;;19.68;45.59;102022.47;5021377;28;20022;-63
2021/10/18 11:50:44;;;;;;;31.00;16.35;;;;;;;19.43;45.32;101993.34;5019894;28;20030;-63
2021/10/18 11:53:31;;;;;;;32.08;16.67;;;;;;;19.09;48.50;101991.13;5024773;28;20045;-62
2021/10/18 11:55:59;;;;;;;31.95;16.63;;;;;;;18.64;47.39;101993.44;5019706;28;20065;-63
2021/10/18 11:58:33;;;;;;;31.70;16.40;;;;;;;18.12;49.60;101994.84;5019072;28;20109;-64
2021/10/18 12:01:08;;;;;;;31.73;16.48;;;;;;;17.86;50.51;101987.88;5019546;28;20029;-63
2021/10/18 12:03:35;;;;;;;31.35;16.60;;;;;;;17.55;50.79;101981.88;5022397;28;20029;-63
2021/10/18 12:06:03;;;;;;;33.35;17.67;;;;;;;17.35;52.50;101980.22;5022053;28;20029;-63
2021/10/18 12:08:31;;;;;;;33.13;17.30;;;;;;;17.14;54.21;101980.31;5023685;28;20037;-63
2021/10/18 12:10:57;;;;;;;31.70;16.52;;;;;;;17.06;53.67;101962.53;5022384;28;20456;-63
2021/10/18 12:13:24;;;;;;;32.75;16.02;;;;;;;16.89;53.34;101961.72;5013261;28;20049;-63
2021/10/18 12:15:59;;;;;;;32.20;15.82;;;;;;;16.72;54.14;101949.31;5022640;28;20029;-63
2021/10/18 12:18:33;;;;;;;32.25;14.90;;;;;;;16.65;55.50;101950.22;5022217;28;20419;-63